Time;durP1;ratioP1;P1;durP2;ratioP2;P2;SDS_P1;SDS_P2;PMS_P1;PMS_P2;Temp;Humidity;BMP_temperature;BMP_pressure;BME280_temperature;BME280_humidity;BME280_pressure;Samples;Min_cycle;Max_cycle;Signal;HPM_P1;HPM_P2
2023/05/21 00:02:02;;;;;;;33.45;16.77;;;;;;;;;;5039371;28;20044;-67
2023/05/21 00:04:28;;;;;;;24.33;16.00;;;;;;;;;;5045344;28;20096;-68
2023/05/21 00:06:53;;;;;;;37.67;17.85;;;;;;;;;;5031908;28;20449;-68
2023/05/21 00:09:19;;;;;;;24.70;15.30;;;;;;;;;;5034929;28;20032;-66
2023/05/21 00:11:44;;;;;;;28.63;16.73;;;;;;;;;;5041092;28;20056;-68
2023/05/21 00:14:09;;;;;;;26.88;16.38;;;;;;;;;;5043823;28;20033;-67
2023/05/21 00:16:35;;;;;;;26.48;16.88;;;;;;;;;;5032181;28;20092;-68
2023/05/21 00:19:01;;;;;;;32.85;17.40;;;;;;;;;;5031669;28;20026;-68
2023/05/21 00:21:26;;;;;;;31.48;17.95;;;;;;;;;;5032263;28;20017;-68
2023/05/21 00:23:53;;;;;;;28.02;16.23;;;;;;;;;;5044030;28;20563;-67
2023/05/21 00:26:19;;;;;;;28.83;16.67;;;;;;;;;;5031941;28;20025;-68
2023/05/21 00:28:44;;;;;;;29.20;17.52;;;;;;;;;;5037019;28;20390;-68
2023/05/21 00:31:09;;;;;;;29.90;17.75;;;;;;;;;;5042962;28;20495;-67
2023/05/21 00:33:35;;;;;;;33.30;17.48;;;;;;;;;;5030767;28;20044;-68
2023/05/21 00:36:00;;;;;;;29.10;17.38;;;;;;;;;;5030675;28;20390;-68
2023/05/21 00:38:26;;;;;;;34.55;18.58;;;;;;;;;;5031282;28;20017;-68
2023/05/21 00:40:52;;;;;;;27.55;15.95;;;;;;;;;;5031070;28;20044;-68
2023/05/21 00:43:17;;;;;;;28.83;17.10;;;;;;;;;;5041776;28;20394;-68
2023/05/21 00:45:46;;;;;;;34.05;17.40;;;;;;;;;;5030888;28;20025;-66
2023/05/21 00:48:12;;;;;;;31.52;18.02;;;;;;;;;;5031657;28;20071;-68
2023/05/21 00:50:38;;;;;;;27.52;16.60;;;;;;;;;;5031482;28;20546;-68
2023/05/21 00:53:04;;;;;;;32.30;17.50;;;;;;;;;;5028213;28;20033;-68
2023/05/21 00:55:29;;;;;;;37.72;19.05;;;;;;;;;;5027970;28;20052;-67
2023/05/21 00:57:55;;;;;;;31.13;17.55;;;;;;;;;;5045721;28;20147;-67
2023/05/21 01:00:20;;;;;;;26.98;16.67;;;;;;;;;;5041251;28;20018;-67
2023/05/21 01:02:45;;;;;;;33.17;18.55;;;;;;;;;;5042312;28;20079;-68
2023/05/21 01:05:10;;;;;;;30.13;18.23;;;;;;;;;;5030123;28;20018;-67
2023/05/21 01:07:37;;;;;;;32.80;18.38;;;;;;;;;;5030891;28;20030;-68
2023/05/21 01:10:03;;;;;;;34.47;20.35;;;;;;;;;;5044554;22;20091;-63
2023/05/21 01:12:30;;;;;;;31.58;18.10;;;;;;;;;;5031903;28;20029;-56
2023/05/21 01:14:56;;;;;;;30.30;18.75;;;;;;;;;;5030775;28;20467;-64
2023/05/21 01:17:23;;;;;;;37.55;18.80;;;;;;;;;;5032057;28;20147;-63
2023/05/21 01:19:48;;;;;;;33.22;18.00;;;;;;;;;;5025716;28;20032;-62
2023/05/21 01:22:15;;;;;;;40.20;18.80;;;;;;;;;;5010887;28;20018;-63
2023/05/21 01:24:40;;;;;;;29.63;18.67;;;;;;;;;;5010233;28;20037;-64
2023/05/21 01:27:06;;;;;;;29.90;18.52;;;;;;;;;;5010503;28;20021;-64
2023/05/21 01:29:31;;;;;;;36.28;19.05;;;;;;;;;;5012836;28;20029;-64
2023/05/21 01:32:15;;;;;;;31.38;18.27;;;;;;;;;;5011565;28;20411;-61
2023/05/21 01:34:46;;;;;;;32.90;19.13;;;;;;;;;;5010535;28;20018;-61
2023/05/21 01:37:38;;;;;;;36.35;19.50;;;;;;;;;;5010883;28;20026;-62
2023/05/21 01:40:15;;;;;;;36.10;19.40;;;;;;;;;;5009860;28;20040;-62
2023/05/21 01:42:42;;;;;;;36.28;18.88;;;;;;;;;;5017845;28;20024;-64
2023/05/21 01:45:08;;;;;;;31.58;19.45;;;;;;;;;;5019042;28;20072;-63
2023/05/21 01:47:34;;;;;;;50.88;21.63;;;;;;;;;;5011163;28;20018;-64
2023/05/21 01:50:00;;;;;;;34.10;19.50;;;;;;;;;;5009626;28;20411;-64
2023/05/21 01:52:25;;;;;;;36.15;18.90;;;;;;;;;;5010909;28;20026;-63
2023/05/21 01:54:53;;;;;;;31.67;18.88;;;;;;;;;;4996641;28;20068;-64
2023/05/21 01:57:18;;;;;;;34.63;19.23;;;;;;;;;;5010704;28;20032;-62
2023/05/21 01:59:44;;;;;;;38.53;19.35;;;;;;;;;;5010072;28;20022;-63
2023/05/21 02:02:09;;;;;;;33.63;18.65;;;;;;;;;;5011104;28;20028;-63
2023/05/21 02:04:36;;;;;;;32.92;19.40;;;;;;;;;;5010131;28;20022;-64
2023/05/21 02:07:01;;;;;;;35.90;20.13;;;;;;;;;;5010024;28;20022;-64
2023/05/21 02:09:26;;;;;;;34.15;18.02;;;;;;;;;;5009971;28;20022;-61
2023/05/21 02:11:52;;;;;;;35.00;19.73;;;;;;;;;;5008688;28;20119;-65
2023/05/21 02:14:17;;;;;;;39.55;20.90;;;;;;;;;;5009997;28;20095;-65
2023/05/21 02:16:42;;;;;;;35.22;19.35;;;;;;;;;;5010931;28;20053;-64
2023/05/21 02:19:09;;;;;;;45.35;20.50;;;;;;;;;;5010542;28;20124;-64
2023/05/21 02:21:34;;;;;;;35.22;18.90;;;;;;;;;;5010942;28;20018;-63
2023/05/21 02:23:59;;;;;;;34.83;19.92;;;;;;;;;;5009008;28;20076;-64
2023/05/21 02:26:25;;;;;;;33.78;19.48;;;;;;;;;;5009847;28;20105;-63
2023/05/21 02:28:51;;;;;;;37.08;20.75;;;;;;;;;;5014475;28;20037;-64
2023/05/21 02:31:16;;;;;;;37.80;20.17;;;;;;;;;;5010634;28;20026;-64
2023/05/21 02:33:42;;;;;;;31.67;19.58;;;;;;;;;;5009478;28;20038;-64
2023/05/21 02:36:12;;;;;;;35.22;20.13;;;;;;;;;;5010765;28;20101;-63
2023/05/21 02:38:42;;;;;;;36.38;19.23;;;;;;;;;;5009774;28;20549;-64
2023/05/21 02:41:07;;;;;;;32.25;18.90;;;;;;;;;;5009544;28;20046;-62
2023/05/21 02:43:32;;;;;;;35.47;20.70;;;;;;;;;;5017774;28;20467;-64
2023/05/21 02:45:58;;;;;;;33.35;19.80;;;;;;;;;;5019398;28;20185;-64
2023/05/21 02:48:23;;;;;;;36.63;20.60;;;;;;;;;;5009972;28;20079;-64
2023/05/21 02:50:48;;;;;;;32.30;18.25;;;;;;;;;;5009976;28;20048;-65
2023/05/21 02:53:13;;;;;;;34.70;19.23;;;;;;;;;;5004073;28;20038;-61
2023/05/21 02:55:38;;;;;;;37.92;20.30;;;;;;;;;;5006919;28;20030;-65
2023/05/21 02:58:04;;;;;;;34.65;20.48;;;;;;;;;;5010877;28;20022;-62
2023/05/21 03:00:29;;;;;;;34.95;20.83;;;;;;;;;;5013780;28;20391;-64
2023/05/21 03:02:54;;;;;;;38.40;20.20;;;;;;;;;;5013766;28;20115;-64
2023/05/21 03:05:20;;;;;;;34.28;20.02;;;;;;;;;;5013363;28;20101;-65
2023/05/21 03:07:45;;;;;;;35.45;19.52;;;;;;;;;;5013982;28;20084;-61
2023/05/21 03:10:11;;;;;;;37.83;20.77;;;;;;;;;;5012816;28;20053;-64
2023/05/21 03:12:36;;;;;;;36.35;21.55;;;;;;;;;;5012956;28;20111;-64
2023/05/21 03:15:02;;;;;;;32.78;19.23;;;;;;;;;;5012535;28;20120;-65
2023/05/21 03:17:27;;;;;;;33.53;20.45;;;;;;;;;;5013718;28;20045;-64
2023/05/21 03:19:53;;;;;;;39.10;21.05;;;;;;;;;;5013867;28;20022;-63
2023/05/21 03:22:18;;;;;;;32.50;20.55;;;;;;;;;;5014118;28;20029;-65
2023/05/21 03:24:44;;;;;;;41.65;20.90;;;;;;;;;;5013427;28;20014;-64
2023/05/21 03:27:09;;;;;;;38.15;21.52;;;;;;;;;;5012020;28;20594;-65
2023/05/21 03:29:35;;;;;;;31.83;19.95;;;;;;;;;;5018212;28;20038;-64
2023/05/21 03:32:00;;;;;;;33.80;19.77;;;;;;;;;;5015109;28;20725;-65
2023/05/21 03:34:25;;;;;;;40.53;21.02;;;;;;;;;;5014540;28;20053;-64
2023/05/21 03:36:51;;;;;;;37.67;21.38;;;;;;;;;;5013797;28;20029;-64
2023/05/21 03:39:16;;;;;;;34.80;19.98;;;;;;;;;;5014040;28;20026;-64
2023/05/21 03:41:41;;;;;;;34.75;20.98;;;;;;;;;;5014124;28;20022;-60
2023/05/21 03:44:06;;;;;;;36.03;20.45;;;;;;;;;;5023695;28;20440;-64
2023/05/21 03:46:32;;;;;;;35.03;20.17;;;;;;;;;;5017090;28;20399;-65
2023/05/21 03:48:57;;;;;;;35.22;20.90;;;;;;;;;;5013417;28;20025;-63
2023/05/21 03:51:23;;;;;;;39.15;21.08;;;;;;;;;;5012733;28;20045;-63
2023/05/21 03:53:49;;;;;;;37.17;22.08;;;;;;;;;;5005809;28;20023;-64
2023/05/21 03:56:14;;;;;;;36.40;20.50;;;;;;;;;;5011753;28;20021;-64
2023/05/21 03:58:39;;;;;;;37.03;22.25;;;;;;;;;;5012631;28;20387;-65
2023/05/21 04:01:05;;;;;;;35.08;21.20;;;;;;;;;;5012815;28;20479;-63
2023/05/21 04:03:34;;;;;;;34.67;20.77;;;;;;;;;;5012288;28;20509;-62
2023/05/21 04:06:00;;;;;;;32.25;18.80;;;;;;;;;;5012846;28;20018;-64
2023/05/21 04:08:25;;;;;;;38.42;21.25;;;;;;;;;;5011900;28;20072;-63
2023/05/21 04:10:50;;;;;;;39.15;20.50;;;;;;;;;;5008960;28;20037;-60
2023/05/21 04:13:16;;;;;;;33.90;21.35;;;;;;;;;;5011910;28;20105;-64
2023/05/21 04:15:43;;;;;;;33.33;20.83;;;;;;;;;;5012154;28;20018;-63
2023/05/21 04:18:09;;;;;;;36.08;20.67;;;;;;;;;;5012645;28;20052;-65
2023/05/21 04:20:34;;;;;;;40.05;21.80;;;;;;;;;;5012279;28;20018;-65
2023/05/21 04:23:00;;;;;;;37.33;20.63;;;;;;;;;;5011820;28;20388;-64
2023/05/21 04:25:25;;;;;;;35.30;19.77;;;;;;;;;;5009909;28;20388;-65
2023/05/21 04:27:53;;;;;;;35.78;20.13;;;;;;;;;;5011388;28;20030;-63
2023/05/21 04:30:18;;;;;;;37.20;20.60;;;;;;;;;;5016212;28;20030;-64
2023/05/21 04:32:44;;;;;;;35.55;20.55;;;;;;;;;;5012575;28;20018;-65
2023/05/21 04:35:10;;;;;;;35.00;20.85;;;;;;;;;;5011622;28;20067;-63
2023/05/21 04:37:36;;;;;;;35.22;19.48;;;;;;;;;;5011757;28;20104;-65
2023/05/21 04:40:03;;;;;;;37.30;21.13;;;;;;;;;;5011646;28;20156;-62
2023/05/21 04:42:29;;;;;;;36.10;21.83;;;;;;;;;;5019968;28;20026;-65
2023/05/21 04:44:54;;;;;;;35.42;20.95;;;;;;;;;;5021049;28;20096;-64
2023/05/21 04:47:20;;;;;;;32.35;19.15;;;;;;;;;;5012376;28;20076;-63
2023/05/21 04:49:45;;;;;;;36.42;21.02;;;;;;;;;;5012945;28;20030;-64
2023/05/21 04:52:11;;;;;;;33.25;20.75;;;;;;;;;;5011725;28;20017;-64
2023/05/21 04:54:37;;;;;;;37.17;20.73;;;;;;;;;;5005788;28;20064;-64
2023/05/21 04:57:03;;;;;;;38.03;20.75;;;;;;;;;;5011371;28;20093;-62
2023/05/21 04:59:28;;;;;;;38.88;21.00;;;;;;;;;;5011412;28;20104;-64
2023/05/21 05:01:53;;;;;;;35.58;20.80;;;;;;;;;;5012189;28;20048;-63
2023/05/21 05:04:19;;;;;;;34.03;19.75;;;;;;;;;;5011520;28;20105;-64
2023/05/21 05:06:44;;;;;;;34.42;20.35;;;;;;;;;;5010455;28;20028;-64
2023/05/21 05:09:09;;;;;;;37.85;21.52;;;;;;;;;;5011589;28;20044;-61
2023/05/21 05:11:34;;;;;;;32.95;19.20;;;;;;;;;;5010429;28;20101;-64
2023/05/21 05:14:00;;;;;;;39.83;20.90;;;;;;;;;;5011849;28;20029;-64
2023/05/21 05:16:25;;;;;;;33.22;20.48;;;;;;;;;;5013694;28;20022;-64
2023/05/21 05:18:53;;;;;;;33.10;19.80;;;;;;;;;;5011438;28;20094;-63
2023/05/21 05:21:20;;;;;;;34.08;18.95;;;;;;;;;;5011441;28;20029;-60
2023/05/21 05:23:45;;;;;;;34.05;19.10;;;;;;;;;;5010578;28;20151;-64
2023/05/21 05:26:11;;;;;;;34.45;19.33;;;;;;;;;;5010549;28;20460;-64
2023/05/21 05:28:36;;;;;;;38.60;20.58;;;;;;;;;;5012656;28;20502;-64
2023/05/21 05:31:01;;;;;;;32.75;20.02;;;;;;;;;;5011781;28;20096;-63
2023/05/21 05:33:26;;;;;;;35.10;20.52;;;;;;;;;;5010699;28;20022;-65
2023/05/21 05:35:51;;;;;;;34.00;19.60;;;;;;;;;;5010509;28;20100;-63
2023/05/21 05:38:17;;;;;;;33.78;18.60;;;;;;;;;;5010541;28;20151;-64
2023/05/21 05:40:42;;;;;;;30.02;17.45;;;;;;;;;;5010624;28;20705;-64
2023/05/21 05:43:07;;;;;;;30.08;17.90;;;;;;;;;;5018096;28;20030;-64
2023/05/21 05:45:32;;;;;;;26.92;17.70;;;;;;;;;;5019246;28;20022;-64
2023/05/21 05:47:58;;;;;;;32.95;19.00;;;;;;;;;;5010884;28;20097;-60
2023/05/21 05:50:23;;;;;;;31.70;17.95;;;;;;;;;;5010552;28;20037;-65
2023/05/21 05:52:48;;;;;;;28.83;18.33;;;;;;;;;;5009773;28;20101;-64
2023/05/21 05:55:13;;;;;;;30.23;17.88;;;;;;;;;;4997267;28;20097;-64
2023/05/21 05:57:39;;;;;;;32.28;19.77;;;;;;;;;;5010277;28;20125;-63
2023/05/21 06:00:04;;;;;;;30.30;18.58;;;;;;;;;;5008699;28;20487;-65
2023/05/21 06:02:29;;;;;;;31.25;19.13;;;;;;;;;;5010177;28;20030;-61
2023/05/21 06:04:55;;;;;;;28.70;18.00;;;;;;;;;;5009848;28;20368;-64
2023/05/21 06:07:20;;;;;;;33.78;17.67;;;;;;;;;;5011109;28;20018;-64
2023/05/21 06:09:45;;;;;;;29.38;18.27;;;;;;;;;;5011973;28;20036;-65
2023/05/21 06:12:10;;;;;;;30.95;17.65;;;;;;;;;;5009410;28;20044;-64
2023/05/21 06:14:36;;;;;;;27.50;17.25;;;;;;;;;;5009468;28;20104;-65
2023/05/21 06:17:02;;;;;;;34.20;17.40;;;;;;;;;;5010552;28;20038;-65
2023/05/21 06:19:27;;;;;;;37.70;17.40;;;;;;;;;;5010257;28;20071;-64
2023/05/21 06:21:52;;;;;;;30.30;17.15;;;;;;;;;;5009730;28;20091;-65
2023/05/21 06:24:17;;;;;;;28.52;16.85;;;;;;;;;;5009332;28;20056;-65
2023/05/21 06:26:43;;;;;;;28.35;18.10;;;;;;;;;;5009520;28;20097;-65
2023/05/21 06:29:08;;;;;;;33.13;18.65;;;;;;;;;;5014223;28;20034;-62
2023/05/21 06:31:34;;;;;;;33.72;17.38;;;;;;;;;;5009502;28;20025;-65
2023/05/21 06:33:59;;;;;;;32.00;18.00;;;;;;;;;;5008445;28;20030;-63
2023/05/21 06:36:28;;;;;;;26.77;16.65;;;;;;;;;;5010156;28;20579;-64
2023/05/21 06:38:53;;;;;;;;;;;;;;;;;;5010192;28;20014;-64
2023/05/21 06:41:18;;;;;;;36.53;18.33;;;;;;;;;;5009740;28;19936;-62
2023/05/21 06:43:43;;;;;;;31.30;16.73;;;;;;;;;;5016920;28;20018;-64
2023/05/21 06:46:09;;;;;;;33.30;18.73;;;;;;;;;;5017599;28;21310;-63
2023/05/21 06:48:34;;;;;;;33.00;17.13;;;;;;;;;;5009770;28;20022;-63
2023/05/21 06:51:00;;;;;;;27.70;16.83;;;;;;;;;;5008688;28;20018;-64
2023/05/21 06:53:25;;;;;;;29.70;17.40;;;;;;;;;;5003576;28;20088;-61
2023/05/21 06:55:52;;;;;;;27.77;17.15;;;;;;;;;;5009002;28;20422;-64
2023/05/21 06:58:17;;;;;;;32.33;17.13;;;;;;;;;;5009348;28;20472;-63
2023/05/21 07:00:43;;;;;;;28.15;16.23;;;;;;;;;;5010208;28;20022;-65
2023/05/21 07:03:08;;;;;;;26.10;15.90;;;;;;;;;;5008769;28;20034;-63
2023/05/21 07:05:33;;;;;;;28.15;15.82;;;;;;;;;;5009033;28;20547;-65
2023/05/21 07:07:58;;;;;;;26.52;16.75;;;;;;;;;;5009114;28;20391;-66
2023/05/21 07:10:23;;;;;;;30.48;16.63;;;;;;;;;;5030712;22;20045;-68
2023/05/21 07:12:49;;;;;;;26.58;16.02;;;;;;;;;;5034786;28;20018;-69
2023/05/21 07:15:14;;;;;;;24.45;15.15;;;;;;;;;;5039176;28;20013;-69
2023/05/21 07:17:39;;;;;;;25.27;15.15;;;;;;;;;;5049039;28;20040;-67
2023/05/21 07:20:06;;;;;;;27.23;16.30;;;;;;;;;;5038094;28;20075;-67
2023/05/21 07:22:31;;;;;;;27.48;16.20;;;;;;;;;;5046557;28;20392;-68
2023/05/21 07:24:57;;;;;;;24.55;14.85;;;;;;;;;;5048051;28;20023;-68
2023/05/21 07:27:22;;;;;;;24.38;15.35;;;;;;;;;;5048944;28;20017;-68
2023/05/21 07:29:47;;;;;;;26.38;15.93;;;;;;;;;;5048774;28;20025;-67
2023/05/21 07:32:12;;;;;;;21.77;14.85;;;;;;;;;;5048727;28;20507;-66
2023/05/21 07:34:38;;;;;;;26.63;16.33;;;;;;;;;;5048226;28;20079;-67
2023/05/21 07:37:03;;;;;;;21.65;14.30;;;;;;;;;;5048419;28;20588;-69
2023/05/21 07:39:28;;;;;;;25.08;14.90;;;;;;;;;;5048908;28;20029;-70
2023/05/21 07:41:53;;;;;;;25.08;14.63;;;;;;;;;;5047268;28;20382;-66
2023/05/21 07:44:19;;;;;;;27.15;14.93;;;;;;;;;;5048874;28;20025;-70
2023/05/21 07:46:44;;;;;;;26.98;15.20;;;;;;;;;;5052157;28;20013;-66
2023/05/21 07:49:15;;;;;;;24.40;14.90;;;;;;;;;;5052650;28;20057;-68
2023/05/21 07:51:40;;;;;;;26.10;14.20;;;;;;;;;;5052476;28;20032;-69
2023/05/21 07:54:05;;;;;;;25.00;14.07;;;;;;;;;;5045405;28;20021;-68
2023/05/21 07:56:31;;;;;;;22.42;13.65;;;;;;;;;;5051424;28;20086;-70
2023/05/21 07:58:56;;;;;;;22.80;12.95;;;;;;;;;;5051777;28;20051;-70
2023/05/21 08:01:22;;;;;;;22.88;13.32;;;;;;;;;;5052150;28;20581;-68
2023/05/21 08:03:48;;;;;;;25.52;13.30;;;;;;;;;;5050889;28;20097;-66
2023/05/21 08:06:13;;;;;;;21.05;13.45;;;;;;;;;;5052296;28;20089;-68
2023/05/21 08:08:38;;;;;;;20.55;13.95;;;;;;;;;;5051714;28;20028;-71
2023/05/21 08:11:04;;;;;;;22.55;13.43;;;;;;;;;;5049098;28;20028;-66
2023/05/21 08:13:29;;;;;;;18.63;11.90;;;;;;;;;;5050897;28;20032;-69
2023/05/21 08:15:55;;;;;;;24.73;13.10;;;;;;;;;;5051252;28;20043;-67
2023/05/21 08:18:22;;;;;;;21.08;13.13;;;;;;;;;;5052064;28;20031;-68
2023/05/21 08:20:47;;;;;;;21.77;12.55;;;;;;;;;;5051871;28;20013;-66
2023/05/21 08:23:13;;;;;;;16.92;11.23;;;;;;;;;;5051044;28;20032;-68
2023/05/21 08:25:38;;;;;;;22.80;11.82;;;;;;;;;;5050438;28;20017;-70
2023/05/21 08:28:03;;;;;;;17.48;10.90;;;;;;;;;;5052232;28;20497;-69
2023/05/21 08:30:28;;;;;;;18.77;11.35;;;;;;;;;;5051324;28;20024;-69
2023/05/21 08:32:54;;;;;;;17.95;11.60;;;;;;;;;;5051826;28;20143;-68
2023/05/21 08:35:19;;;;;;;19.20;11.20;;;;;;;;;;5051052;28;20504;-68
2023/05/21 08:37:44;;;;;;;23.73;12.98;;;;;;;;;;5051292;28;20029;-67
2023/05/21 08:40:11;;;;;;;24.60;12.85;;;;;;;;;;5051266;28;21936;-68
2023/05/21 08:42:43;;;;;;;19.17;12.07;;;;;;;;;;5051080;28;20021;-66
2023/05/21 08:45:10;;;;;;;21.52;12.30;;;;;;;;;;5050020;28;20021;-69
2023/05/21 08:47:35;;;;;;;18.17;11.80;;;;;;;;;;5051266;28;20493;-69
2023/05/21 08:50:04;;;;;;;19.08;10.95;;;;;;;;;;5051299;28;20060;-68
2023/05/21 08:52:30;;;;;;;15.55;10.30;;;;;;;;;;5051308;28;20032;-68
2023/05/21 08:54:56;;;;;;;19.30;11.98;;;;;;;;;;5044356;28;20020;-69
2023/05/21 08:57:24;;;;;;;19.38;11.82;;;;;;;;;;5050156;28;20033;-69
2023/05/21 08:59:49;;;;;;;17.00;11.13;;;;;;;;;;5050615;28;20032;-70
2023/05/21 09:02:17;;;;;;;18.08;11.52;;;;;;;;;;5050888;28;20185;-69
2023/05/21 09:04:48;;;;;;;16.10;11.23;;;;;;;;;;5047081;28;20159;-70
2023/05/21 09:07:13;;;;;;;18.02;11.93;;;;;;;;;;5049141;28;20518;-68
2023/05/21 09:09:42;;;;;;;18.92;11.52;;;;;;;;;;5050914;28;20044;-67
2023/05/21 09:12:07;;;;;;;19.90;11.15;;;;;;;;;;5048647;28;20021;-69
2023/05/21 09:14:33;;;;;;;18.80;12.15;;;;;;;;;;5049830;28;20065;-70
2023/05/21 09:16:59;;;;;;;18.25;11.10;;;;;;;;;;5051014;28;20017;-67
2023/05/21 09:19:24;;;;;;;19.92;11.05;;;;;;;;;;5050687;28;20036;-67
2023/05/21 09:21:52;;;;;;;19.25;11.27;;;;;;;;;;5050351;28;20044;-70
2023/05/21 09:24:20;;;;;;;17.90;11.77;;;;;;;;;;5050071;28;20029;-69
2023/05/21 09:26:45;;;;;;;16.52;10.82;;;;;;;;;;5049917;28;20033;-71
2023/05/21 09:29:12;;;;;;;17.98;10.98;;;;;;;;;;5049945;28;20036;-68
2023/05/21 09:31:41;;;;;;;20.88;10.32;;;;;;;;;;5050037;28;20020;-68
2023/05/21 09:34:06;;;;;;;22.58;10.95;;;;;;;;;;5049627;28;20548;-68
2023/05/21 09:36:33;;;;;;;16.60;10.45;;;;;;;;;;5050623;28;20029;-69
2023/05/21 09:38:59;;;;;;;18.90;11.52;;;;;;;;;;5049106;28;20024;-69
2023/05/21 09:41:34;;;;;;;27.85;11.65;;;;;;;;;;5048782;28;20020;-69
2023/05/21 09:44:00;;;;;;;19.70;12.07;;;;;;;;;;5042031;28;20013;-66
2023/05/21 09:46:26;;;;;;;19.33;11.50;;;;;;;;;;5050152;28;20013;-69
2023/05/21 09:48:51;;;;;;;16.88;11.23;;;;;;;;;;5048633;28;20052;-68
2023/05/21 09:51:17;;;;;;;18.13;10.30;;;;;;;;;;5049749;28;20458;-68
2023/05/21 09:53:52;;;;;;;18.25;10.85;;;;;;;;;;5043591;28;20277;-69
2023/05/21 09:56:21;;;;;;;19.50;10.48;;;;;;;;;;5049389;28;20017;-68
2023/05/21 09:58:46;;;;;;;;;;;;;;;;;;5049741;28;20028;-68
2023/05/21 10:01:12;;;;;;;15.43;10.35;;;;;;;;;;5049621;28;19919;-68
2023/05/21 10:03:38;;;;;;;15.07;10.77;;;;;;;;;;5048857;28;20095;-68
2023/05/21 10:06:04;;;;;;;18.65;11.35;;;;;;;;;;5048613;28;20021;-68
2023/05/21 10:08:32;;;;;;;16.17;10.82;;;;;;;;;;5049485;28;20032;-68
2023/05/21 10:10:57;;;;;;;16.27;10.45;;;;;;;;;;5047484;28;20025;-68
2023/05/21 10:13:23;;;;;;;16.25;10.38;;;;;;;;;;5048552;28;20035;-68
2023/05/21 10:15:51;;;;;;;18.95;10.73;;;;;;;;;;5049427;28;20043;-68
2023/05/21 10:18:17;;;;;;;17.40;9.48;;;;;;;;;;5049951;28;20029;-68
2023/05/21 10:20:43;;;;;;;16.25;9.77;;;;;;;;;;5049667;28;20032;-66
2023/05/21 10:23:09;;;;;;;18.40;10.82;;;;;;;;;;5049312;28;20032;-67
2023/05/21 10:25:34;;;;;;;16.50;10.57;;;;;;;;;;5048238;28;20021;-68
2023/05/21 10:28:00;;;;;;;15.57;9.90;;;;;;;;;;5049298;28;20028;-69
2023/05/21 10:30:25;;;;;;;18.42;9.77;;;;;;;;;;5048806;28;20021;-69
2023/05/21 10:32:51;;;;;;;14.60;9.60;;;;;;;;;;5049537;28;20078;-67
2023/05/21 10:35:19;;;;;;;14.82;10.10;;;;;;;;;;5048463;28;20047;-67
2023/05/21 10:37:45;;;;;;;15.13;10.15;;;;;;;;;;5048663;28;20025;-68
2023/05/21 10:40:11;;;;;;;16.02;10.23;;;;;;;;;;5048328;28;20482;-70
2023/05/21 10:42:47;;;;;;;20.15;9.82;;;;;;;;;;5047919;28;20132;-68
2023/05/21 10:45:18;;;;;;;16.83;9.30;;;;;;;;;;5047795;28;20076;-68
2023/05/21 10:47:46;;;;;;;17.15;9.48;;;;;;;;;;5048918;28;20025;-67
2023/05/21 10:50:27;;;;;;;16.35;8.77;;;;;;;;;;5048977;28;20017;-70
2023/05/21 10:53:13;;;;;;;13.13;8.30;;;;;;;;;;5047940;28;20029;-67
2023/05/21 10:55:41;;;;;;;15.95;9.70;;;;;;;;;;5046713;28;20047;-67
2023/05/21 10:58:14;;;;;;;20.17;9.98;;;;;;;;;;5049024;28;20025;-68
2023/05/21 11:00:41;;;;;;;17.45;8.43;;;;;;;;;;5049106;28;20032;-67
2023/05/21 11:03:06;;;;;;;25.65;10.43;;;;;;;;;;5049150;28;20040;-69
2023/05/21 11:05:40;;;;;;;16.67;8.73;;;;;;;;;;5048386;28;20031;-69
2023/05/21 11:08:17;;;;;;;18.85;8.25;;;;;;;;;;5048404;28;20060;-69
2023/05/21 11:10:44;;;;;;;16.73;8.50;;;;;;;;;;5047263;28;20025;-68
2023/05/21 11:13:11;;;;;;;15.63;8.70;;;;;;;;;;5048817;28;20483;-68
2023/05/21 11:15:55;;;;;;;20.05;8.30;;;;;;;;;;5046838;28;20120;-69
2023/05/21 11:18:20;;;;;;;12.63;8.57;;;;;;;;;;5048731;28;20075;-69
2023/05/21 11:20:50;;;;;;;17.80;8.50;;;;;;;;;;5052003;28;20029;-68
2023/05/21 11:23:15;;;;;;;22.88;9.77;;;;;;;;;;5052096;28;20533;-69
2023/05/21 11:25:40;;;;;;;12.80;8.32;;;;;;;;;;5052633;28;20471;-70
2023/05/21 11:28:08;;;;;;;17.67;10.07;;;;;;;;;;5053065;28;20029;-67
2023/05/21 11:30:33;;;;;;;16.80;9.53;;;;;;;;;;5050878;28;20052;-67
2023/05/21 11:33:12;;;;;;;11.60;8.60;;;;;;;;;;5052812;28;20021;-69
2023/05/21 11:35:54;;;;;;;19.13;8.90;;;;;;;;;;5052093;28;20432;-69
2023/05/21 11:38:19;;;;;;;14.55;8.35;;;;;;;;;;5050974;28;20045;-70
2023/05/21 11:40:53;;;;;;;14.10;8.63;;;;;;;;;;5052275;28;20051;-70
2023/05/21 11:43:19;;;;;;;15.20;8.07;;;;;;;;;;5051032;28;20060;-69
2023/05/21 11:45:46;;;;;;;17.20;8.52;;;;;;;;;;5052389;28;20041;-68
2023/05/21 11:48:12;;;;;;;13.57;8.48;;;;;;;;;;5053093;28;20033;-66
2023/05/21 11:50:37;;;;;;;14.20;8.15;;;;;;;;;;5052728;28;20029;-68
2023/05/21 11:53:03;;;;;;;14.05;7.97;;;;;;;;;;5049643;28;20100;-66
2023/05/21 11:55:28;;;;;;;13.45;8.45;;;;;;;;;;5047944;28;20592;-68
2023/05/21 11:57:54;;;;;;;22.88;8.48;;;;;;;;;;5051589;28;20175;-69
2023/05/21 12:00:20;;;;;;;19.58;8.48;;;;;;;;;;5051876;28;20028;-69
2023/05/21 12:02:55;;;;;;;14.27;8.23;;;;;;;;;;5051925;28;20129;-69
2023/05/21 12:05:20;;;;;;;11.45;7.75;;;;;;;;;;5051561;28;20013;-68
2023/05/21 12:07:47;;;;;;;12.88;7.65;;;;;;;;;;5050980;28;20073;-68
2023/05/21 12:10:12;;;;;;;14.07;8.48;;;;;;;;;;5051530;28;20021;-69
2023/05/21 12:12:38;;;;;;;21.38;8.27;;;;;;;;;;5050250;28;20044;-69
2023/05/21 12:15:03;;;;;;;11.60;8.00;;;;;;;;;;5050697;28;20617;-68
2023/05/21 12:17:30;;;;;;;14.55;8.10;;;;;;;;;;5051978;28;20506;-69
2023/05/21 12:19:56;;;;;;;17.38;8.63;;;;;;;;;;5051744;28;20474;-69
2023/05/21 12:22:26;;;;;;;13.98;7.53;;;;;;;;;;5050924;28;20051;-68
2023/05/21 12:24:52;;;;;;;15.10;8.13;;;;;;;;;;5029932;28;20406;-69
2023/05/21 12:27:18;;;;;;;16.10;7.90;;;;;;;;;;5048400;28;20021;-66
2023/05/21 12:29:44;;;;;;;23.05;7.85;;;;;;;;;;5051955;28;20425;-69
2023/05/21 12:32:11;;;;;;;12.60;7.85;;;;;;;;;;5050784;28;20024;-69
2023/05/21 12:34:45;;;;;;;13.05;6.93;;;;;;;;;;5051369;28;20028;-68
2023/05/21 12:37:13;;;;;;;15.93;7.57;;;;;;;;;;5050932;28;20538;-69
2023/05/21 12:39:46;;;;;;;16.20;7.63;;;;;;;;;;5051306;28;20024;-67
2023/05/21 12:42:11;;;;;;;20.02;7.82;;;;;;;;;;5049725;28;20044;-68
2023/05/21 12:44:37;;;;;;;14.82;8.15;;;;;;;;;;5049815;28;20039;-68
2023/05/21 12:47:03;;;;;;;16.30;7.15;;;;;;;;;;5051407;28;20495;-68
2023/05/21 12:49:37;;;;;;;14.43;7.38;;;;;;;;;;5051080;28;20514;-68
2023/05/21 12:52:03;;;;;;;19.10;7.88;;;;;;;;;;5050324;28;20021;-69
2023/05/21 12:54:32;;;;;;;16.98;8.15;;;;;;;;;;5044657;28;20482;-70
2023/05/21 12:57:04;;;;;;;15.18;8.85;;;;;;;;;;5050576;28;20086;-69
2023/05/21 12:59:38;;;;;;;13.68;7.90;;;;;;;;;;5049641;28;20036;-70
2023/05/21 13:02:03;;;;;;;13.80;7.95;;;;;;;;;;5050695;28;20025;-68
2023/05/21 13:04:28;;;;;;;19.00;7.55;;;;;;;;;;5049362;28;20025;-68
2023/05/21 13:06:53;;;;;;;12.73;7.67;;;;;;;;;;5050424;28;20017;-68
2023/05/21 13:09:19;;;;;;;13.60;7.40;;;;;;;;;;5050906;28;20296;-69
2023/05/21 13:11:44;;;;;;;13.38;7.22;;;;;;;;;;5073054;22;20333;-62
2023/05/21 13:14:09;;;;;;;13.02;7.45;;;;;;;;;;5048840;28;20390;-64
2023/05/21 13:16:34;;;;;;;14.73;8.00;;;;;;;;;;5052130;28;20027;-65
2023/05/21 13:19:00;;;;;;;12.15;7.90;;;;;;;;;;5051436;28;20347;-65
2023/05/21 13:21:25;;;;;;;11.77;7.18;;;;;;;;;;5042552;28;20021;-62
2023/05/21 13:23:50;;;;;;;14.77;7.68;;;;;;;;;;5030791;28;20029;-62
2023/05/21 13:26:16;;;;;;;11.20;7.32;;;;;;;;;;5031067;28;20022;-65
2023/05/21 13:28:41;;;;;;;18.02;7.68;;;;;;;;;;5030421;28;20021;-65
2023/05/21 13:31:06;;;;;;;14.10;7.75;;;;;;;;;;5031465;28;20668;-65
2023/05/21 13:33:31;;;;;;;13.88;7.88;;;;;;;;;;5030396;28;20033;-63
2023/05/21 13:35:57;;;;;;;15.32;7.75;;;;;;;;;;5031560;28;20379;-66
2023/05/21 13:38:22;;;;;;;16.15;7.60;;;;;;;;;;5030561;28;20665;-65
2023/05/21 13:40:48;;;;;;;15.43;7.05;;;;;;;;;;5030339;28;20543;-63
2023/05/21 13:43:13;;;;;;;13.35;7.65;;;;;;;;;;5029344;28;20026;-65
2023/05/21 13:45:39;;;;;;;14.43;7.22;;;;;;;;;;5029739;28;20032;-62
2023/05/21 13:48:04;;;;;;;14.80;7.60;;;;;;;;;;5030266;28;20391;-65
2023/05/21 13:50:29;;;;;;;14.00;7.93;;;;;;;;;;5030261;28;20067;-64
2023/05/21 13:52:55;;;;;;;17.33;8.13;;;;;;;;;;5028188;28;20352;-70
2023/05/21 13:55:20;;;;;;;12.40;7.43;;;;;;;;;;5024657;28;20029;-65
2023/05/21 13:57:45;;;;;;;13.57;7.47;;;;;;;;;;5030119;28;20247;-67
2023/05/21 14:00:13;;;;;;;14.40;7.47;;;;;;;;;;5029035;28;20377;-63
2023/05/21 14:02:39;;;;;;;12.50;7.23;;;;;;;;;;5029809;28;20493;-61
2023/05/21 14:05:05;;;;;;;12.10;7.93;;;;;;;;;;5029314;28;20340;-65
2023/05/21 14:07:30;;;;;;;13.98;7.80;;;;;;;;;;5029344;28;20024;-62
2023/05/21 14:09:55;;;;;;;20.00;8.73;;;;;;;;;;5029303;28;20036;-63
2023/05/21 14:12:21;;;;;;;16.65;8.05;;;;;;;;;;5027652;28;20029;-63
2023/05/21 14:14:48;;;;;;;13.63;7.97;;;;;;;;;;5028304;28;20655;-64
2023/05/21 14:17:13;;;;;;;13.27;7.80;;;;;;;;;;5030162;28;20026;-62